메인 페이지
METAR-TAF:

METAR-TAF

공항 :

바그다드, 이라크

바그다드 국제공항

위도: 33-15-45N, 경도: 44-14-04E, 고도: 35m

현재 날씨관측

예보는 49분 전, 05:00시(UTC)에 발표되었습니다.
북서2kt
온도 8°C
습도 100%
기압 1019 hPa
시정: 2300m
고도 3500ft 상공 구름 조금
박무

METAR: ORBI 200500Z 32002KT 2300 BR FEW035 08/08 Q1019 BECMG 4000

시각: 08:49 (05:49 UTC)

예보

예보는 7 시간 49분 전, 22:00시(UTC)에 발표되었습니다.
예보 대상 시간: 20일 00시부터 20일 24시까지 (UTC)
여러 방향의 바람 3kt
시정: 8000m
전환 중
20일 03시부터 20일 05시까지 (UTC)
시정: 6000m
박무

TAF: ORBI 192200Z 2000/2024 VRB03KT 8000 NSC BECMG 2003/2005 3000 BR BECG 2007/2009 6000

4,000개 이상의 공항 관측 자료 및 예보 (METAR 및 TAF 보고).

지도상에서 검색 가능한 기상관측소가 노란 점과 빨간 점으로 표시되어 있습니다.

기상관측소 명을 보려면 표시 위로 마우스를 이동하세요.

날씨 관측과 예보를 보려면 클릭하세요.

지도 변경 : 확대하려면 엑스 표시가 있는 녹색 버튼, 축소하려면 빼기 표시가 있는 녹색 버튼, 다음 페이지의 지도를 보려면 녹색 화살표를 클릭하세요.


METAR-TAF: